createdAt,value
2022-12-23T00:00:33.952Z,24.40
2022-12-23T00:05:39.052Z,21.70
2022-12-23T00:08:37.804Z,21.70
2022-12-23T00:11:53.228Z,21.77
2022-12-23T00:18:20.863Z,21.60
2022-12-23T00:21:16.014Z,21.00
2022-12-23T00:33:23.625Z,20.50
2022-12-23T00:36:32.969Z,20.90
2022-12-23T00:39:38.155Z,20.70
2022-12-23T00:43:03.513Z,19.13
2022-12-23T00:45:50.099Z,19.90
2022-12-23T00:48:55.205Z,19.60
2022-12-23T00:51:28.847Z,19.80
2022-12-23T00:57:32.922Z,18.90
2022-12-23T01:00:30.379Z,19.00
2022-12-23T01:03:32.497Z,18.53
2022-12-23T01:06:14.097Z,18.90
2022-12-23T01:08:57.402Z,18.57
2022-12-23T01:11:44.217Z,18.80
2022-12-23T01:14:26.005Z,18.63
2022-12-23T01:17:17.656Z,18.27
2022-12-23T01:19:57.383Z,17.67
2022-12-23T01:22:49.862Z,18.30
2022-12-23T01:25:32.155Z,18.27
2022-12-23T01:28:00.800Z,18.87
2022-12-23T01:30:30.959Z,16.80
2022-12-23T01:33:00.170Z,18.10
2022-12-23T01:35:48.812Z,17.43
2022-12-23T01:38:24.359Z,18.00
2022-12-23T01:44:52.224Z,17.63
2022-12-23T01:47:36.481Z,18.63
2022-12-23T01:50:24.635Z,17.80
2022-12-23T01:53:42.407Z,18.73
2022-12-23T01:56:05.979Z,17.50
2022-12-23T01:58:48.339Z,17.43
2022-12-23T02:01:46.903Z,17.77
2022-12-23T02:04:48.795Z,18.40
2022-12-23T02:08:01.162Z,17.60
2022-12-23T02:11:13.083Z,17.37
2022-12-23T02:14:23.524Z,16.90
2022-12-23T02:17:51.392Z,17.90
2022-12-23T02:21:02.528Z,16.70
2022-12-23T02:30:32.467Z,16.47
2022-12-23T02:34:18.884Z,16.50
2022-12-23T02:37:05.474Z,16.70
2022-12-23T02:40:03.506Z,16.23
2022-12-23T02:43:05.444Z,16.10
2022-12-23T02:49:21.590Z,16.67
2022-12-23T02:58:27.082Z,15.90
2022-12-23T03:04:22.109Z,16.27
2022-12-23T03:07:08.158Z,17.13
2022-12-23T03:09:45.826Z,15.40
2022-12-23T03:12:28.495Z,16.00
2022-12-23T03:15:11.788Z,16.07
2022-12-23T03:18:15.337Z,16.00
2022-12-23T03:21:13.218Z,15.27
2022-12-23T03:24:11.683Z,15.47
2022-12-23T03:27:31.843Z,15.43
2022-12-23T03:30:18.423Z,16.27
2022-12-23T03:32:49.397Z,16.27
2022-12-23T03:35:20.651Z,15.73
2022-12-23T03:37:54.663Z,15.20
2022-12-23T03:40:27.427Z,14.27
2022-12-23T03:43:01.836Z,14.73
2022-12-23T03:45:40.346Z,15.10
2022-12-23T03:48:16.498Z,14.80
2022-12-23T03:50:46.555Z,14.90
2022-12-23T03:53:20.175Z,15.80
2022-12-23T03:55:52.724Z,14.90
2022-12-23T03:58:29.609Z,15.00
2022-12-23T04:01:05.874Z,14.77
2022-12-23T04:03:53.744Z,16.17
2022-12-23T04:06:50.464Z,14.80
2022-12-23T04:09:35.870Z,15.80
2022-12-23T04:12:29.321Z,15.33
2022-12-23T04:15:20.863Z,14.90
2022-12-23T04:18:00.996Z,14.60
2022-12-23T04:21:11.552Z,14.90
2022-12-23T04:23:57.459Z,14.67
2022-12-23T04:26:54.041Z,16.60
2022-12-23T04:30:08.616Z,14.50
2022-12-23T04:33:05.150Z,14.23
2022-12-23T04:35:33.935Z,14.40
2022-12-23T04:38:02.378Z,14.80
2022-12-23T04:40:57.029Z,13.80
2022-12-23T04:43:59.951Z,14.00
2022-12-23T04:46:40.378Z,12.97
2022-12-23T04:49:46.080Z,13.40
2022-12-23T04:52:14.853Z,13.60
2022-12-23T04:55:08.167Z,14.40
2022-12-23T04:57:50.279Z,14.17
2022-12-23T05:01:06.384Z,13.87
2022-12-23T05:04:05.215Z,13.40
2022-12-23T05:07:05.454Z,14.30
2022-12-23T05:10:03.999Z,13.40
2022-12-23T05:12:49.397Z,13.10
2022-12-23T05:16:00.533Z,13.63
2022-12-23T05:18:50.888Z,12.60
2022-12-23T05:21:41.467Z,12.90
2022-12-23T05:24:29.819Z,13.00
2022-12-23T05:27:11.178Z,12.70
2022-12-23T05:29:59.635Z,12.40
2022-12-23T05:32:53.387Z,12.80
2022-12-23T05:35:25.480Z,12.77
2022-12-23T05:37:54.517Z,12.90
2022-12-23T05:40:29.302Z,12.77
2022-12-23T05:43:17.082Z,14.03
2022-12-23T05:46:27.338Z,13.20
2022-12-23T05:49:12.615Z,13.53
2022-12-23T05:52:06.864Z,13.10
2022-12-23T05:58:10.162Z,13.13
2022-12-23T06:00:39.074Z,12.90
2022-12-23T06:03:30.268Z,12.63
2022-12-23T06:06:15.410Z,13.40
2022-12-23T06:09:10.461Z,11.87
2022-12-23T06:12:01.693Z,12.87
2022-12-23T06:14:48.628Z,12.87
2022-12-23T06:17:31.214Z,12.83
2022-12-23T06:20:24.697Z,13.50
2022-12-23T06:23:28.314Z,12.90
2022-12-23T06:26:18.675Z,14.10
2022-12-23T06:32:17.989Z,13.40
2022-12-23T06:35:14.023Z,13.30
2022-12-23T06:38:00.884Z,13.80
2022-12-23T06:47:44.765Z,13.40
2022-12-23T06:50:29.021Z,13.30
2022-12-23T06:53:26.702Z,13.20
2022-12-23T06:56:21.368Z,14.00
2022-12-23T06:59:05.848Z,16.57
2022-12-23T07:02:03.939Z,17.50
2022-12-23T07:05:04.416Z,18.50
2022-12-23T07:10:51.436Z,18.60
2022-12-23T07:13:41.326Z,18.33
2022-12-23T07:16:32.305Z,18.83
2022-12-23T07:19:09.088Z,18.40
2022-12-23T07:21:49.651Z,18.60
2022-12-23T07:24:21.376Z,17.67
2022-12-23T07:27:24.455Z,17.07
2022-12-23T07:30:29.114Z,17.63
2022-12-23T07:33:12.870Z,16.80
2022-12-23T07:36:01.335Z,16.87
2022-12-23T07:46:20.104Z,16.83
2022-12-23T07:49:20.716Z,16.53
2022-12-23T07:52:20.302Z,18.10
2022-12-23T07:55:20.747Z,19.30
2022-12-23T10:09:28.281Z,15.10
2022-12-23T10:12:19.602Z,15.40
2022-12-23T10:14:54.028Z,15.50
2022-12-23T10:17:40.016Z,15.13
2022-12-23T10:20:20.591Z,15.40
2022-12-23T10:22:52.680Z,14.83
2022-12-23T10:46:32.850Z,15.63
2022-12-23T10:49:06.962Z,15.43
2022-12-23T10:52:59.375Z,15.80
2022-12-23T10:55:43.107Z,16.03
2022-12-23T10:58:31.281Z,15.20
2022-12-23T11:01:13.962Z,15.13
2022-12-23T11:03:57.258Z,15.10
2022-12-23T11:06:34.822Z,15.60
2022-12-23T11:09:08.527Z,15.67
2022-12-23T11:12:00.879Z,15.60
2022-12-23T11:15:03.145Z,15.57
2022-12-23T11:17:48.241Z,15.40
2022-12-23T11:20:22.759Z,15.30
2022-12-23T11:23:47.497Z,15.10
2022-12-23T11:26:29.407Z,15.17
2022-12-23T11:29:07.377Z,15.37
2022-12-23T13:24:00.434Z,15.00
2022-12-23T13:27:00.201Z,15.70
2022-12-23T13:30:49.555Z,15.87
2022-12-23T13:34:00.220Z,15.47
2022-12-23T13:37:28.436Z,15.90
2022-12-23T17:52:58.185Z,21.23
2022-12-23T17:55:56.211Z,21.10
2022-12-23T17:58:54.743Z,20.20
2022-12-23T18:01:39.951Z,21.07
2022-12-23T18:04:39.713Z,20.60
2022-12-23T18:07:19.899Z,20.03
2022-12-23T18:10:08.126Z,19.67
2022-12-23T18:13:19.916Z,20.20
2022-12-23T18:35:19.078Z,21.40
2022-12-23T23:16:57.576Z,34.33
2022-12-23T23:19:28.669Z,34.40
2022-12-23T23:22:19.526Z,36.13
2022-12-23T23:25:09.433Z,34.90
2022-12-23T23:27:48.442Z,38.50
2022-12-23T23:36:22.859Z,35.07
2022-12-23T23:39:15.911Z,34.93
2022-12-23T23:42:02.179Z,32.63
2022-12-23T23:44:43.224Z,35.40
2022-12-23T23:47:15.993Z,34.60
2022-12-23T23:49:54.231Z,33.33
2022-12-23T23:52:48.909Z,31.10
2022-12-23T23:55:18.752Z,27.60
2022-12-23T23:57:49.196Z,24.27
